createdAt,value
2018-11-25T00:02:16.264Z,37.97
2018-11-25T00:04:44.100Z,39.13
2018-11-25T00:07:11.980Z,39.60
2018-11-25T00:09:39.825Z,38.30
2018-11-25T00:12:07.795Z,37.00
2018-11-25T00:14:35.660Z,35.50
2018-11-25T00:17:03.515Z,35.60
2018-11-25T00:19:31.512Z,35.37
2018-11-25T00:21:59.381Z,35.80
2018-11-25T00:24:27.262Z,36.57
2018-11-25T00:26:55.388Z,36.37
2018-11-25T00:29:23.368Z,36.73
2018-11-25T00:31:51.242Z,37.20
2018-11-25T00:34:19.055Z,35.43
2018-11-25T00:36:46.914Z,36.37
2018-11-25T00:39:14.816Z,37.30
2018-11-25T00:41:43.796Z,34.90
2018-11-25T00:44:11.582Z,34.20
2018-11-25T00:46:39.420Z,35.80
2018-11-25T00:49:07.216Z,35.53
2018-11-25T00:51:37.145Z,36.30
2018-11-25T00:54:05.284Z,35.67
2018-11-25T00:56:33.176Z,33.93
2018-11-25T00:59:01.123Z,35.57
2018-11-25T01:01:28.989Z,33.17
2018-11-25T01:03:56.836Z,35.67
2018-11-25T01:06:24.804Z,34.93
2018-11-25T01:08:52.648Z,35.57
2018-11-25T01:11:20.552Z,35.33
2018-11-25T01:13:48.468Z,37.10
2018-11-25T01:16:16.426Z,33.83
2018-11-25T01:18:44.446Z,34.00
2018-11-25T01:21:12.414Z,34.53
2018-11-25T01:23:40.266Z,34.37
2018-11-25T01:26:08.098Z,34.80
2018-11-25T01:28:35.924Z,34.90
2018-11-25T01:31:03.925Z,32.63
2018-11-25T01:33:31.739Z,33.70
2018-11-25T01:35:59.560Z,34.43
2018-11-25T01:38:27.413Z,34.90
2018-11-25T01:40:55.269Z,33.67
2018-11-25T01:43:23.126Z,34.07
2018-11-25T01:45:50.958Z,33.67
2018-11-25T01:48:18.830Z,33.30
2018-11-25T01:50:47.242Z,33.70
2018-11-25T01:53:15.083Z,34.43
2018-11-25T01:55:42.912Z,34.53
2018-11-25T01:58:10.904Z,33.37
2018-11-25T02:00:38.860Z,33.90
2018-11-25T02:03:06.682Z,35.37
2018-11-25T02:05:34.590Z,33.97
2018-11-25T02:08:02.450Z,32.80
2018-11-25T02:10:30.344Z,33.80
2018-11-25T02:12:58.151Z,33.13
2018-11-25T02:15:26.018Z,33.97
2018-11-25T02:17:53.862Z,32.73
2018-11-25T02:20:22.810Z,34.47
2018-11-25T02:22:52.469Z,33.17
2018-11-25T02:25:20.327Z,33.87
2018-11-25T02:27:48.287Z,33.30
2018-11-25T02:30:16.980Z,34.60
2018-11-25T02:32:45.208Z,30.90
2018-11-25T02:35:13.815Z,32.70
2018-11-25T02:37:41.723Z,32.90
2018-11-25T02:42:59.610Z,32.13
2018-11-25T02:45:27.970Z,33.73
2018-11-25T02:47:55.790Z,33.77
2018-11-25T02:50:27.676Z,32.20
2018-11-25T02:52:56.778Z,31.77
2018-11-25T02:55:25.531Z,32.00
2018-11-25T02:57:53.430Z,31.73
2018-11-25T03:00:23.923Z,30.73
2018-11-25T03:02:51.864Z,32.13
2018-11-25T03:05:19.758Z,32.17
2018-11-25T03:07:47.624Z,31.90
2018-11-25T03:10:15.536Z,30.87
2018-11-25T03:12:43.392Z,30.80
2018-11-25T03:15:12.756Z,30.27
2018-11-25T03:17:40.584Z,31.60
2018-11-25T03:20:11.204Z,31.80
2018-11-25T03:22:39.054Z,29.97
2018-11-25T03:25:16.246Z,31.77
2018-11-25T03:27:44.217Z,30.33
2018-11-25T03:30:15.020Z,32.70
2018-11-25T03:32:43.420Z,31.40
2018-11-25T03:35:12.071Z,33.37
2018-11-25T03:37:39.884Z,31.33
2018-11-25T03:40:09.738Z,30.20
2018-11-25T03:42:37.665Z,31.47
2018-11-25T03:45:08.028Z,32.37
2018-11-25T03:47:35.893Z,31.60
2018-11-25T03:50:04.242Z,31.93
2018-11-25T03:52:32.106Z,31.63
2018-11-25T03:55:00.048Z,34.80
2018-11-25T03:57:27.944Z,31.43
2018-11-25T03:59:55.773Z,31.77
2018-11-25T04:02:23.633Z,31.27
2018-11-25T04:07:18.665Z,32.53
2018-11-25T04:09:46.714Z,31.10
2018-11-25T04:12:15.219Z,32.03
2018-11-25T04:14:43.080Z,32.07
2018-11-25T04:17:10.925Z,32.57
2018-11-25T04:19:38.768Z,30.23
2018-11-25T04:22:07.590Z,31.33
2018-11-25T04:24:35.397Z,31.47
2018-11-25T04:27:03.212Z,32.10
2018-11-25T04:29:31.074Z,31.50
2018-11-25T04:31:59.142Z,32.33
2018-11-25T04:34:27.089Z,31.40
2018-11-25T04:36:54.904Z,31.70
2018-11-25T04:39:22.768Z,31.50
2018-11-25T04:41:51.718Z,31.10
2018-11-25T04:44:19.553Z,31.67
2018-11-25T04:46:47.456Z,31.20
2018-11-25T04:49:15.321Z,30.73
2018-11-25T04:51:43.116Z,31.63
2018-11-25T04:54:11.036Z,32.37
2018-11-25T04:56:38.874Z,32.33
2018-11-25T04:59:06.724Z,31.37
2018-11-25T05:01:34.576Z,31.37
2018-11-25T05:04:03.162Z,31.93
2018-11-25T05:06:30.988Z,30.90
2018-11-25T05:08:58.827Z,31.80
2018-11-25T05:11:26.653Z,31.07
2018-11-25T05:13:55.142Z,28.93
2018-11-25T05:16:23.158Z,31.13
2018-11-25T05:18:51.648Z,31.23
2018-11-25T05:21:19.516Z,32.70
2018-11-25T05:23:47.594Z,30.83
2018-11-25T05:26:15.437Z,31.40
2018-11-25T05:28:43.308Z,29.77
2018-11-25T05:31:11.148Z,31.17
2018-11-25T05:33:38.979Z,29.77
2018-11-25T05:36:06.868Z,30.97
2018-11-25T05:38:34.761Z,30.87
2018-11-25T05:41:02.573Z,29.83
2018-11-25T05:43:30.403Z,30.67
2018-11-25T05:45:58.247Z,30.60
2018-11-25T05:48:26.135Z,27.87
2018-11-25T05:50:54.021Z,30.47
2018-11-25T05:53:21.874Z,30.83
2018-11-25T05:55:49.782Z,29.87
2018-11-25T05:58:17.632Z,32.47
2018-11-25T06:00:45.552Z,33.17
2018-11-25T06:03:13.314Z,32.67
2018-11-25T06:05:41.118Z,33.97
2018-11-25T06:08:08.949Z,32.87
2018-11-25T06:10:36.776Z,33.90
2018-11-25T06:13:05.642Z,34.80
2018-11-25T06:15:33.505Z,32.97
2018-11-25T06:18:01.308Z,33.67
2018-11-25T06:20:29.157Z,33.27
2018-11-25T06:22:57.016Z,33.30
2018-11-25T06:25:25.091Z,32.80
2018-11-25T06:27:52.971Z,31.40
2018-11-25T06:30:20.977Z,30.43
2018-11-25T06:32:49.020Z,32.37
2018-11-25T06:35:17.831Z,31.97
2018-11-25T06:37:46.561Z,30.40
2018-11-25T06:40:15.264Z,31.87
2018-11-25T06:42:43.125Z,30.27
2018-11-25T06:45:13.727Z,32.07
2018-11-25T06:47:41.540Z,32.27
2018-11-25T06:50:12.448Z,30.73
2018-11-25T06:52:39.371Z,31.30
2018-11-25T06:55:08.807Z,31.27
2018-11-25T06:57:36.808Z,29.80
2018-11-25T07:00:14.843Z,30.70
2018-11-25T07:02:43.457Z,27.50
2018-11-25T07:05:11.462Z,27.90
2018-11-25T07:07:39.337Z,28.33
2018-11-25T07:10:17.582Z,27.13
2018-11-25T07:12:45.685Z,27.03
2018-11-25T07:15:17.190Z,25.33
2018-11-25T07:17:45.104Z,25.57
2018-11-25T07:20:14.970Z,26.10
2018-11-25T07:22:42.825Z,24.43
2018-11-25T07:25:12.855Z,26.57
2018-11-25T07:27:40.679Z,25.13
2018-11-25T07:30:19.103Z,25.07
2018-11-25T07:32:47.116Z,25.63
2018-11-25T07:35:15.049Z,25.97
2018-11-25T07:37:42.945Z,25.10
2018-11-25T07:40:15.074Z,26.67
2018-11-25T07:42:43.016Z,25.17
2018-11-25T07:45:12.295Z,27.10
2018-11-25T07:47:40.128Z,27.13
2018-11-25T07:50:09.375Z,27.53
2018-11-25T07:52:37.310Z,27.97
2018-11-25T07:55:10.823Z,28.17
2018-11-25T07:57:38.845Z,29.77
2018-11-25T08:00:11.575Z,28.63
2018-11-25T08:02:41.562Z,29.17
2018-11-25T08:05:08.621Z,29.83
2018-11-25T08:07:36.547Z,31.93
2018-11-25T08:10:07.026Z,31.57
2018-11-25T08:12:34.863Z,31.87
2018-11-25T08:15:02.760Z,31.73
2018-11-25T08:17:30.697Z,33.13
2018-11-25T08:19:58.515Z,33.70
2018-11-25T08:22:26.325Z,34.43
2018-11-25T08:24:57.817Z,34.53
2018-11-25T08:27:26.587Z,34.13
2018-11-25T08:29:54.434Z,32.67
2018-11-25T08:32:22.296Z,32.63
2018-11-25T08:34:50.114Z,32.47
2018-11-25T08:37:17.965Z,30.87
2018-11-25T08:39:45.893Z,31.23
2018-11-25T08:42:13.901Z,30.33
2018-11-25T08:44:42.775Z,32.90
2018-11-25T08:47:10.813Z,32.63
2018-11-25T08:49:38.704Z,32.77
2018-11-25T08:52:06.647Z,31.87
2018-11-25T08:54:34.717Z,31.23
2018-11-25T08:57:03.658Z,30.87
2018-11-25T08:59:31.456Z,28.63
2018-11-25T09:02:00.243Z,27.60
2018-11-25T09:04:28.118Z,26.53
2018-11-25T09:06:55.978Z,28.40
2018-11-25T09:09:23.800Z,28.83
2018-11-25T09:11:51.678Z,29.33
2018-11-25T09:14:19.505Z,29.70
2018-11-25T09:16:47.339Z,31.57
2018-11-25T09:19:15.357Z,33.73
2018-11-25T09:21:43.239Z,35.17
2018-11-25T09:24:12.921Z,31.17
2018-11-25T09:26:40.747Z,31.57
2018-11-25T09:29:08.653Z,32.53
2018-11-25T09:31:36.549Z,31.87
2018-11-25T09:34:04.458Z,32.00
2018-11-25T09:36:32.345Z,32.70
2018-11-25T09:39:00.430Z,30.70
2018-11-25T09:41:28.405Z,29.70
2018-11-25T09:43:56.403Z,26.97
2018-11-25T09:46:24.252Z,26.83
2018-11-25T09:48:52.494Z,24.93
2018-11-25T09:51:21.365Z,24.80
2018-11-25T09:53:49.292Z,25.40
2018-11-25T09:56:17.100Z,24.77
2018-11-25T09:58:45.061Z,25.57
2018-11-25T10:01:12.907Z,25.40
2018-11-25T10:03:45.805Z,24.87
2018-11-25T10:06:13.702Z,23.70
2018-11-25T10:08:41.545Z,24.73
2018-11-25T10:11:09.558Z,22.37
2018-11-25T10:13:37.445Z,25.57
2018-11-25T10:16:06.691Z,22.93
2018-11-25T10:18:34.655Z,21.40
2018-11-25T10:21:02.547Z,21.50
2018-11-25T10:23:30.482Z,21.83
2018-11-25T10:25:58.413Z,21.17
2018-11-25T10:28:26.300Z,22.47
2018-11-25T10:30:54.161Z,19.27
2018-11-25T10:33:21.997Z,19.87
2018-11-25T10:35:49.919Z,20.00
2018-11-25T10:38:17.768Z,20.43
2018-11-25T10:40:45.666Z,19.43
2018-11-25T10:43:13.688Z,19.40
2018-11-25T10:45:46.956Z,19.13
2018-11-25T10:48:14.855Z,19.70
2018-11-25T10:50:42.895Z,18.90
2018-11-25T10:53:10.860Z,18.93
2018-11-25T10:55:40.523Z,18.13
2018-11-25T10:58:08.505Z,19.60
2018-11-25T11:00:42.035Z,20.50
2018-11-25T11:03:16.041Z,18.83
2018-11-25T11:06:52.854Z,18.40
2018-11-25T11:09:20.847Z,19.07
2018-11-25T11:11:48.723Z,18.93
2018-11-25T11:14:16.643Z,20.00
2018-11-25T11:16:44.608Z,19.00
2018-11-25T11:19:13.835Z,19.13
2018-11-25T11:21:42.110Z,20.30
2018-11-25T11:24:10.220Z,20.33
2018-11-25T11:26:39.013Z,19.53
2018-11-25T11:29:07.175Z,20.70
2018-11-25T11:31:40.463Z,20.60
2018-11-25T11:34:08.530Z,20.80
2018-11-25T11:36:36.361Z,21.87
2018-11-25T11:39:07.162Z,24.00
2018-11-25T11:41:35.120Z,21.87
2018-11-25T11:44:03.568Z,22.90
2018-11-25T11:46:31.632Z,23.73
2018-11-25T11:48:59.626Z,23.40
2018-11-25T11:51:29.246Z,23.80
2018-11-25T11:53:57.209Z,23.03
2018-11-25T11:56:25.089Z,24.07
2018-11-25T11:58:58.346Z,24.20
2018-11-25T12:01:26.328Z,23.83
2018-11-25T12:03:56.005Z,24.40
2018-11-25T12:06:24.931Z,24.97
2018-11-25T12:08:56.230Z,26.03
2018-11-25T12:11:24.112Z,25.87
2018-11-25T12:13:52.944Z,25.40
2018-11-25T12:16:20.818Z,26.17
2018-11-25T12:19:02.055Z,25.40
2018-11-25T12:21:31.727Z,26.57
2018-11-25T12:24:03.254Z,28.33
2018-11-25T12:26:31.085Z,27.43
2018-11-25T12:28:59.061Z,26.00
2018-11-25T12:31:29.346Z,27.40
2018-11-25T12:33:57.152Z,28.07
2018-11-25T12:36:25.297Z,29.03
2018-11-25T12:38:53.306Z,27.73
2018-11-25T12:41:21.107Z,28.87
2018-11-25T12:43:49.548Z,29.03
2018-11-25T12:46:17.528Z,30.27
2018-11-25T12:48:45.390Z,29.60
2018-11-25T12:51:13.262Z,30.20
2018-11-25T12:53:41.179Z,28.83
2018-11-25T12:56:09.722Z,29.67
2018-11-25T12:58:37.599Z,29.40
2018-11-25T13:01:05.631Z,28.20
2018-11-25T13:03:33.488Z,27.93
2018-11-25T13:06:01.435Z,29.17
2018-11-25T13:08:29.306Z,28.67
2018-11-25T13:10:57.348Z,29.30
2018-11-25T13:13:25.458Z,26.67
2018-11-25T13:15:53.446Z,24.53
2018-11-25T13:18:21.986Z,25.70
2018-11-25T13:20:51.535Z,26.77
2018-11-25T13:23:20.088Z,25.00
2018-11-25T13:25:47.986Z,25.40
2018-11-25T13:28:16.098Z,25.90
2018-11-25T13:30:43.953Z,26.77
2018-11-25T13:33:11.779Z,26.93
2018-11-25T13:35:40.009Z,27.47
2018-11-25T13:38:08.353Z,27.53
2018-11-25T13:40:36.205Z,27.80
2018-11-25T13:43:04.102Z,26.37
2018-11-25T13:45:31.972Z,26.53
2018-11-25T13:47:59.870Z,26.27
2018-11-25T13:50:28.020Z,25.63
2018-11-25T13:52:55.912Z,25.27
2018-11-25T13:55:28.288Z,26.00
2018-11-25T13:57:56.242Z,25.60
2018-11-25T14:00:30.102Z,25.33
2018-11-25T14:02:58.126Z,26.77
2018-11-25T14:05:27.268Z,26.73
2018-11-25T14:07:55.224Z,26.80
2018-11-25T14:10:25.241Z,26.97
2018-11-25T14:12:53.877Z,25.73
2018-11-25T14:15:22.044Z,25.07
2018-11-25T14:17:50.017Z,25.63
2018-11-25T14:20:17.975Z,25.17
2018-11-25T14:22:45.885Z,24.63
2018-11-25T14:25:20.060Z,23.10
2018-11-25T14:27:49.916Z,23.30
2018-11-25T14:30:20.192Z,22.77
2018-11-25T14:32:48.118Z,21.77
2018-11-25T14:35:23.276Z,22.10
2018-11-25T14:37:51.160Z,22.57
2018-11-25T14:40:20.295Z,21.60
2018-11-25T14:42:49.499Z,22.30
2018-11-25T14:45:21.806Z,21.50
2018-11-25T14:47:49.730Z,21.73
2018-11-25T14:50:18.744Z,21.00
2018-11-25T14:52:48.284Z,22.10
2018-11-25T14:55:18.953Z,21.47
2018-11-25T14:57:46.823Z,20.87
2018-11-25T15:00:17.634Z,20.83
2018-11-25T15:02:47.973Z,21.50
2018-11-25T15:05:20.102Z,23.00
2018-11-25T15:07:48.059Z,20.73
2018-11-25T15:10:15.980Z,20.00
2018-11-25T15:12:44.629Z,19.87
2018-11-25T15:15:13.690Z,19.20
2018-11-25T15:17:42.728Z,19.73
2018-11-25T15:20:11.753Z,20.13
2018-11-25T15:22:40.397Z,18.40
2018-11-25T15:25:14.864Z,18.77
2018-11-25T15:27:43.565Z,19.43
2018-11-25T15:30:11.724Z,18.87
2018-11-25T15:32:40.872Z,22.07
2018-11-25T15:35:13.701Z,20.87
2018-11-25T15:37:44.222Z,19.27
2018-11-25T15:40:18.845Z,19.60
2018-11-25T15:42:47.496Z,19.10
2018-11-25T15:45:20.976Z,19.63
2018-11-25T15:47:51.674Z,19.77
2018-11-25T15:50:23.939Z,20.00
2018-11-25T15:52:51.920Z,18.80
2018-11-25T15:55:20.175Z,21.00
2018-11-25T15:57:49.760Z,20.50
2018-11-25T16:00:18.937Z,20.67
2018-11-25T16:02:47.151Z,20.40
2018-11-25T16:05:18.378Z,20.37
2018-11-25T16:07:47.068Z,21.90
2018-11-25T16:10:15.020Z,20.00
2018-11-25T16:12:44.347Z,22.57
2018-11-25T16:15:14.556Z,22.73
2018-11-25T16:17:42.549Z,22.23
2018-11-25T16:20:17.864Z,22.30
2018-11-25T16:22:46.634Z,21.97
2018-11-25T16:25:22.212Z,22.97
2018-11-25T16:27:51.710Z,24.97
2018-11-25T16:30:19.905Z,24.33
2018-11-25T16:32:48.906Z,24.90
2018-11-25T16:35:17.929Z,25.57
2018-11-25T16:37:45.848Z,25.23
2018-11-25T16:40:14.869Z,26.17
2018-11-25T16:42:42.836Z,24.97
2018-11-25T16:45:14.767Z,25.67
2018-11-25T16:47:42.732Z,24.70
2018-11-25T16:50:12.066Z,23.70
2018-11-25T16:52:40.237Z,25.33
2018-11-25T16:55:09.461Z,23.03
2018-11-25T16:57:37.565Z,24.77
2018-11-25T17:00:11.412Z,24.67
2018-11-25T17:02:39.352Z,23.77
2018-11-25T17:05:09.900Z,26.13
2018-11-25T17:07:37.882Z,24.23
2018-11-25T17:10:08.636Z,25.63
2018-11-25T17:12:36.647Z,26.33
2018-11-25T17:15:11.108Z,26.97
2018-11-25T17:17:39.151Z,28.10
2018-11-25T17:20:07.843Z,28.13
2018-11-25T17:22:36.071Z,28.67
2018-11-25T17:25:08.165Z,28.40
2018-11-25T17:27:37.075Z,30.20
2018-11-25T17:30:09.323Z,30.10
2018-11-25T17:32:37.328Z,31.47
2018-11-25T17:35:11.045Z,30.23
2018-11-25T17:37:38.955Z,31.07
2018-11-25T17:40:08.675Z,32.63
2018-11-25T17:42:36.963Z,34.70
2018-11-25T17:45:06.499Z,33.77
2018-11-25T17:47:34.469Z,34.60
2018-11-25T17:50:02.567Z,34.20
2018-11-25T17:52:30.595Z,35.17
2018-11-25T17:55:04.553Z,34.70
2018-11-25T17:57:32.497Z,35.63
2018-11-25T18:00:00.582Z,35.60
2018-11-25T18:02:28.687Z,35.67
2018-11-25T18:04:56.844Z,35.97
2018-11-25T18:07:25.744Z,35.87
2018-11-25T18:09:53.817Z,35.17
2018-11-25T18:12:21.661Z,35.43
2018-11-25T18:14:49.666Z,34.40
2018-11-25T18:17:17.734Z,35.30
2018-11-25T18:19:46.374Z,34.93
2018-11-25T18:22:19.085Z,32.83
2018-11-25T18:24:47.416Z,34.50
2018-11-25T18:27:15.341Z,33.37
2018-11-25T18:29:43.351Z,35.67
2018-11-25T18:32:11.298Z,33.73
2018-11-25T18:34:39.226Z,32.63
2018-11-25T18:37:07.253Z,33.60
2018-11-25T18:39:35.279Z,32.33
2018-11-25T18:42:03.325Z,33.67
2018-11-25T18:44:31.444Z,32.13
2018-11-25T18:47:03.298Z,32.13
2018-11-25T18:49:31.577Z,32.93
2018-11-25T18:52:05.138Z,32.47
2018-11-25T18:54:28.047Z,32.70
2018-11-25T18:56:55.981Z,33.13
2018-11-25T18:59:24.213Z,34.20
2018-11-25T19:01:59.397Z,34.83
2018-11-25T19:04:27.357Z,35.37
2018-11-25T19:07:01.267Z,36.53
2018-11-25T19:09:30.333Z,35.03
2018-11-25T19:11:59.290Z,36.20
2018-11-25T19:14:30.787Z,36.13
2018-11-25T19:16:58.876Z,37.17
2018-11-25T19:19:32.590Z,36.27
2018-11-25T19:22:16.893Z,35.13
2018-11-25T19:24:46.161Z,34.07
2018-11-25T19:27:14.268Z,34.80
2018-11-25T19:29:42.329Z,37.17
2018-11-25T19:32:10.283Z,33.60
2018-11-25T19:34:41.356Z,35.27
2018-11-25T19:37:12.145Z,34.17
2018-11-25T19:39:40.599Z,35.70
2018-11-25T19:42:09.815Z,35.07
2018-11-25T19:44:46.086Z,33.80
2018-11-25T19:47:14.074Z,34.60
2018-11-25T19:49:42.217Z,35.27
2018-11-25T19:52:10.195Z,36.57
2018-11-25T19:54:43.220Z,37.37
2018-11-25T19:59:52.297Z,35.37
2018-11-25T20:02:20.748Z,36.20
2018-11-25T20:04:48.885Z,34.87
2018-11-25T20:07:17.074Z,34.40
2018-11-25T20:09:45.207Z,34.43
2018-11-25T20:12:14.107Z,33.40
2018-11-25T20:14:42.316Z,32.13
2018-11-25T20:17:19.353Z,32.70
2018-11-25T20:19:47.709Z,31.97
2018-11-25T20:22:22.515Z,31.80
2018-11-25T20:24:51.597Z,31.57
2018-11-25T20:27:28.301Z,33.90
2018-11-25T20:29:56.401Z,28.60
2018-11-25T20:32:30.437Z,29.90
2018-11-25T20:34:58.951Z,29.30
2018-11-25T20:37:27.168Z,27.50
2018-11-25T20:39:55.009Z,30.63
2018-11-25T20:42:23.881Z,29.77
2018-11-25T20:44:51.786Z,30.47
2018-11-25T20:47:19.795Z,30.70
2018-11-25T20:49:47.806Z,29.30
2018-11-25T20:52:21.405Z,30.27
2018-11-25T20:54:49.457Z,30.17
2018-11-25T20:57:18.694Z,31.30
2018-11-25T20:59:46.751Z,29.90
2018-11-25T21:02:20.235Z,30.07
2018-11-25T21:04:42.864Z,30.30
2018-11-25T21:07:11.164Z,29.83
2018-11-25T21:09:39.181Z,28.83
2018-11-25T21:12:07.199Z,30.03
2018-11-25T21:14:35.723Z,29.63
2018-11-25T21:17:03.738Z,29.77
2018-11-25T21:19:31.622Z,28.47
2018-11-25T21:21:59.812Z,28.53
2018-11-25T21:24:27.942Z,28.40
2018-11-25T21:26:55.951Z,28.53
2018-11-25T21:29:23.963Z,28.63
2018-11-25T21:31:51.899Z,27.30
2018-11-25T21:34:19.911Z,27.03
2018-11-25T21:36:47.818Z,27.23
2018-11-25T21:39:15.792Z,28.37
2018-11-25T21:41:43.791Z,27.17
2018-11-25T21:44:11.766Z,26.93
2018-11-25T21:46:39.855Z,26.53
2018-11-25T21:49:07.750Z,26.93
2018-11-25T21:51:36.445Z,27.27
2018-11-25T21:54:07.848Z,26.80
2018-11-25T21:56:35.702Z,26.73
2018-11-25T21:59:03.688Z,27.13
2018-11-25T22:01:31.602Z,25.57
2018-11-25T22:03:59.496Z,25.80
2018-11-25T22:06:27.473Z,27.47
2018-11-25T22:08:55.293Z,27.10
2018-11-25T22:11:23.144Z,26.03
2018-11-25T22:16:51.954Z,26.00
2018-11-25T22:19:30.604Z,25.37
2018-11-25T22:21:58.450Z,25.37
2018-11-25T22:24:26.330Z,26.73
2018-11-25T22:26:54.374Z,25.80
2018-11-25T22:29:22.252Z,27.83
2018-11-25T22:31:50.771Z,28.13
2018-11-25T22:34:18.646Z,28.70
2018-11-25T22:36:46.576Z,29.47
2018-11-25T22:39:14.423Z,27.63
2018-11-25T22:41:42.958Z,27.33
2018-11-25T22:44:10.848Z,28.27
2018-11-25T22:46:38.704Z,28.57
2018-11-25T22:49:06.572Z,27.70
2018-11-25T22:51:34.760Z,28.40
2018-11-25T22:54:02.576Z,28.33
2018-11-25T22:56:30.434Z,28.80
2018-11-25T22:58:58.700Z,28.83
2018-11-25T23:01:26.724Z,28.50
2018-11-25T23:04:06.764Z,29.17
2018-11-25T23:06:45.952Z,29.73
2018-11-25T23:09:13.805Z,30.30
2018-11-25T23:11:41.800Z,29.30
2018-11-25T23:14:09.675Z,28.17
2018-11-25T23:16:37.545Z,29.07
2018-11-25T23:19:06.155Z,30.50
2018-11-25T23:21:33.997Z,30.10
2018-11-25T23:24:03.618Z,29.67
2018-11-25T23:26:30.738Z,31.67
2018-11-25T23:28:58.912Z,30.00
2018-11-25T23:31:26.746Z,30.67
2018-11-25T23:33:54.792Z,29.87
2018-11-25T23:36:22.744Z,31.67
2018-11-25T23:38:51.364Z,31.53
2018-11-25T23:41:19.224Z,31.50
2018-11-25T23:43:50.784Z,31.07
2018-11-25T23:46:18.648Z,30.73
2018-11-25T23:48:46.521Z,31.57
2018-11-25T23:51:14.448Z,32.77
2018-11-25T23:53:42.286Z,31.97
2018-11-25T23:56:10.182Z,30.47
2018-11-25T23:58:38.034Z,32.70
